Terminal Aerodrome Forecast
Issued by NWS

Home | Current Version | Previous Version | Text Only | Print | Product List | Glossary On
Versions: 1 2 3 4 5 6 7 8 9 10 11 12 13 14 15 16 17 18 19 20 21 22 23 24 25 26 27 28 29 30 31 32 33
000
FTUS45 KGJT 252338
TAFEGE
TAF
KEGE 252338Z 2600/2624 22014KT P6SM VCTS FEW050CB BKN090
      TEMPO 2601/2604 VRB15G30KT 5SM -TSRA SCT030 BKN040CB
     FM260400 09004KT 5SM -RA BKN030
     FM261200 12004KT P6SM OVC060
     FM261900 VRB05KT P6SM VCTS SCT040CB OVC060
      AMD LTD TO CLD VIS AND WIND 2602/2613=

USA.gov is the U.S. government's official web portal to all federal, state and local government web resources and services.